createdAt,value
2022-10-19T00:01:04.975Z,13.52
2022-10-19T00:04:10.524Z,13.51
2022-10-19T00:07:16.074Z,13.50
2022-10-19T00:10:21.538Z,13.49
2022-10-19T00:13:27.075Z,13.49
2022-10-19T00:16:35.421Z,13.48
2022-10-19T00:19:40.916Z,13.48
2022-10-19T00:22:46.483Z,13.49
2022-10-19T00:25:58.671Z,13.48
2022-10-19T00:29:04.908Z,13.47
2022-10-19T00:32:10.397Z,13.48
2022-10-19T00:35:16.055Z,13.48
2022-10-19T00:38:22.573Z,13.48
2022-10-19T00:41:30.839Z,13.46
2022-10-19T00:45:00.652Z,13.46
2022-10-19T00:48:06.653Z,13.46
2022-10-19T00:51:12.371Z,13.45
2022-10-19T00:54:18.861Z,13.45
2022-10-19T00:57:28.742Z,13.44
2022-10-19T01:00:34.788Z,13.44
2022-10-19T01:03:39.539Z,13.43
2022-10-19T01:06:45.205Z,13.40
2022-10-19T01:09:50.957Z,13.38
2022-10-19T01:13:16.101Z,13.38
2022-10-19T01:16:32.133Z,13.37
2022-10-19T01:20:10.667Z,13.36
2022-10-19T01:23:45.794Z,13.33
2022-10-19T01:27:11.921Z,13.31
2022-10-19T01:30:26.994Z,13.30
2022-10-19T01:33:47.073Z,13.30
2022-10-19T01:37:01.822Z,13.30
2022-10-19T01:40:14.064Z,13.29
2022-10-19T01:43:39.261Z,13.27
2022-10-19T01:46:50.681Z,13.26
2022-10-19T01:50:00.324Z,13.24
2022-10-19T01:53:09.105Z,13.24
2022-10-19T01:56:17.969Z,13.22
2022-10-19T01:59:24.644Z,13.16
2022-10-19T02:02:31.030Z,13.10
2022-10-19T02:05:39.383Z,13.06
2022-10-19T02:08:48.721Z,13.05
2022-10-19T02:11:57.937Z,13.03
2022-10-19T02:15:11.261Z,13.04
2022-10-19T02:18:20.901Z,13.04
2022-10-19T02:21:27.236Z,13.00
2022-10-19T02:24:32.972Z,12.94
2022-10-19T02:27:42.163Z,12.91
2022-10-19T02:30:47.945Z,12.89
2022-10-19T02:33:53.946Z,12.86
2022-10-19T02:37:00.034Z,12.82
2022-10-19T02:40:04.099Z,12.82
2022-10-19T02:43:15.211Z,12.80
2022-10-19T02:46:25.241Z,12.79
2022-10-19T02:49:34.284Z,12.81
2022-10-19T02:52:41.130Z,12.83
2022-10-19T02:55:48.572Z,12.83
2022-10-19T02:58:54.073Z,12.82
2022-10-19T03:01:59.519Z,12.83
2022-10-19T03:05:05.448Z,12.79
2022-10-19T03:08:10.925Z,12.77
2022-10-19T03:11:16.365Z,12.78
2022-10-19T03:14:22.068Z,12.77
2022-10-19T03:17:27.560Z,12.75
2022-10-19T03:20:33.136Z,12.75
2022-10-19T03:23:39.593Z,12.75
2022-10-19T03:26:45.143Z,12.75
2022-10-19T03:29:50.576Z,12.75
2022-10-19T03:32:56.139Z,12.74
2022-10-19T03:36:20.960Z,12.73
2022-10-19T03:39:26.556Z,12.73
2022-10-19T03:42:31.986Z,12.72
2022-10-19T03:45:37.589Z,12.72
2022-10-19T03:48:43.343Z,12.68
2022-10-19T03:51:48.934Z,12.65
2022-10-19T03:54:54.444Z,12.65
2022-10-19T03:58:00.329Z,12.66
2022-10-19T04:01:11.609Z,12.67
2022-10-19T04:04:20.057Z,12.67
2022-10-19T04:07:25.646Z,12.67
2022-10-19T04:10:33.510Z,12.67
2022-10-19T04:13:39.020Z,12.65
2022-10-19T04:16:44.681Z,12.64
2022-10-19T04:19:50.308Z,12.61
2022-10-19T04:22:56.540Z,12.59
2022-10-19T04:26:05.208Z,12.56
2022-10-19T04:29:11.201Z,12.53
2022-10-19T04:32:16.691Z,12.50
2022-10-19T04:35:22.151Z,12.49
2022-10-19T04:38:27.801Z,12.49
2022-10-19T04:41:34.313Z,12.49
2022-10-19T04:44:40.130Z,12.49
2022-10-19T04:47:45.597Z,12.49
2022-10-19T04:50:51.096Z,12.46
2022-10-19T04:53:59.688Z,12.47
2022-10-19T04:57:06.631Z,12.48
2022-10-19T05:00:14.834Z,12.50
2022-10-19T05:03:20.376Z,12.49
2022-10-19T05:06:26.591Z,12.48
2022-10-19T05:09:30.504Z,12.48
2022-10-19T05:12:37.284Z,12.49
2022-10-19T05:15:42.998Z,12.48
2022-10-19T05:18:51.717Z,12.48
2022-10-19T05:21:57.271Z,12.49
2022-10-19T05:25:02.726Z,12.48
2022-10-19T05:28:08.267Z,12.49
2022-10-19T05:31:15.763Z,12.49
2022-10-19T05:34:21.465Z,12.46
2022-10-19T05:37:26.995Z,12.44
2022-10-19T05:40:32.514Z,12.45
2022-10-19T05:43:38.166Z,12.48
2022-10-19T05:46:43.944Z,12.47
2022-10-19T05:49:50.186Z,12.48
2022-10-19T05:52:55.740Z,12.48
2022-10-19T05:56:01.394Z,12.49
2022-10-19T05:59:09.702Z,12.50
2022-10-19T06:02:16.604Z,12.50
2022-10-19T06:05:22.046Z,12.49
2022-10-19T06:08:27.683Z,12.48
2022-10-19T06:11:35.734Z,12.46
2022-10-19T06:14:41.407Z,12.45
2022-10-19T06:17:47.187Z,12.46
2022-10-19T06:20:52.761Z,12.49
2022-10-19T06:23:59.870Z,12.51
2022-10-19T06:27:06.815Z,12.53
2022-10-19T06:30:14.144Z,12.54
2022-10-19T06:33:19.759Z,12.54
2022-10-19T06:36:27.605Z,12.56
2022-10-19T06:39:33.109Z,12.58
2022-10-19T06:42:39.478Z,12.56
2022-10-19T06:45:45.027Z,12.59
2022-10-19T06:48:54.918Z,12.61
2022-10-19T06:52:00.428Z,12.63
2022-10-19T06:55:07.412Z,12.63
2022-10-19T06:58:12.822Z,12.61
2022-10-19T07:01:18.559Z,12.58
2022-10-19T07:04:24.177Z,12.55
2022-10-19T07:07:29.762Z,12.56
2022-10-19T07:10:35.388Z,12.58
2022-10-19T07:13:41.323Z,12.58
2022-10-19T07:16:47.082Z,12.63
2022-10-19T07:19:52.626Z,12.65
2022-10-19T07:22:58.075Z,12.66
2022-10-19T07:26:07.480Z,12.61
2022-10-19T07:29:13.369Z,12.58
2022-10-19T07:32:18.920Z,12.58
2022-10-19T07:35:24.468Z,12.56
2022-10-19T07:38:31.349Z,12.55
2022-10-19T07:41:37.106Z,12.55
2022-10-19T07:44:43.241Z,12.57
2022-10-19T07:47:47.178Z,12.62
2022-10-19T07:50:52.672Z,12.69
2022-10-19T07:53:58.510Z,12.73
2022-10-19T07:57:04.135Z,12.79
2022-10-19T08:00:12.391Z,12.82
2022-10-19T08:06:43.514Z,13.04
2022-10-19T08:09:53.351Z,13.17
2022-10-19T08:12:59.634Z,13.27
2022-10-19T08:16:05.516Z,13.31
2022-10-19T08:19:13.024Z,13.28
2022-10-19T08:22:18.492Z,13.24
2022-10-19T08:25:23.942Z,13.23
2022-10-19T08:28:29.632Z,13.22
2022-10-19T08:31:35.415Z,13.26
2022-10-19T08:34:41.486Z,13.34
2022-10-19T08:37:45.848Z,13.40
2022-10-19T08:40:51.728Z,13.44
2022-10-19T08:44:12.637Z,13.48
2022-10-19T08:47:29.085Z,13.51
2022-10-19T08:50:39.517Z,13.46
2022-10-19T08:53:52.750Z,13.40
2022-10-19T08:57:07.838Z,13.34
2022-10-19T09:00:19.018Z,13.30
2022-10-19T09:03:54.330Z,13.24
2022-10-19T09:07:22.338Z,13.14
2022-10-19T09:10:30.580Z,13.03
2022-10-19T09:13:53.473Z,13.00
2022-10-19T09:17:13.673Z,12.96
2022-10-19T09:20:22.873Z,12.95
2022-10-19T09:23:36.653Z,12.93
2022-10-19T09:26:52.409Z,12.87
2022-10-19T09:29:59.436Z,12.82
2022-10-19T09:33:06.421Z,12.78
2022-10-19T09:36:22.406Z,12.78
2022-10-19T09:39:33.615Z,12.77
2022-10-19T09:42:39.134Z,12.75
2022-10-19T09:45:48.985Z,12.77
2022-10-19T09:48:54.893Z,12.76
2022-10-19T09:52:00.389Z,12.73
2022-10-19T09:55:08.585Z,12.66
2022-10-19T09:58:21.366Z,12.62
2022-10-19T10:01:41.812Z,12.58
2022-10-19T10:04:58.348Z,12.54
2022-10-19T10:08:04.317Z,12.49
2022-10-19T10:11:12.616Z,12.50
2022-10-19T10:14:22.784Z,12.52
2022-10-19T10:17:32.755Z,12.55
2022-10-19T10:20:40.510Z,12.57
2022-10-19T10:23:59.317Z,12.56
2022-10-19T10:27:07.429Z,12.56
2022-10-19T10:30:21.299Z,12.54
2022-10-19T10:33:44.226Z,12.50
2022-10-19T10:36:54.920Z,12.47
2022-10-19T10:40:04.623Z,12.51
2022-10-19T10:43:16.599Z,12.60
2022-10-19T10:46:26.478Z,12.67
2022-10-19T10:49:35.131Z,12.66
2022-10-19T10:52:41.569Z,12.62
2022-10-19T10:55:57.999Z,12.61
2022-10-19T10:59:13.261Z,12.60
2022-10-19T11:02:30.969Z,12.61
2022-10-19T11:05:39.719Z,12.63
2022-10-19T11:08:51.233Z,12.64
2022-10-19T11:11:59.536Z,12.60
2022-10-19T11:15:14.049Z,12.54
2022-10-19T11:18:26.460Z,12.44
2022-10-19T11:21:37.739Z,12.36
2022-10-19T11:24:55.269Z,12.30
2022-10-19T11:28:15.155Z,12.27
2022-10-19T11:31:25.350Z,12.22
2022-10-19T11:34:50.697Z,12.23
2022-10-19T11:38:28.874Z,12.24
2022-10-19T11:41:46.083Z,12.29
2022-10-19T11:45:04.363Z,12.38
2022-10-19T11:48:33.371Z,12.42
2022-10-19T11:51:43.940Z,12.48
2022-10-19T11:55:04.379Z,12.53
2022-10-19T11:58:25.596Z,12.58
2022-10-19T12:01:40.587Z,12.61
2022-10-19T12:04:53.621Z,12.67
2022-10-19T12:08:15.454Z,12.70
2022-10-19T12:11:32.493Z,12.68
2022-10-19T12:14:42.145Z,12.63
2022-10-19T12:17:50.518Z,12.56
2022-10-19T12:21:00.762Z,12.51
2022-10-19T12:24:12.352Z,12.49
2022-10-19T12:27:24.485Z,12.47
2022-10-19T12:30:30.473Z,12.42
2022-10-19T12:33:48.937Z,12.43
2022-10-19T12:37:00.561Z,12.45
2022-10-19T12:40:14.813Z,12.46
2022-10-19T12:43:27.146Z,12.44
2022-10-19T12:46:39.859Z,12.43
2022-10-19T12:49:50.244Z,12.42
2022-10-19T12:52:55.789Z,12.44
2022-10-19T12:56:06.729Z,12.48
2022-10-19T12:59:24.784Z,12.47
2022-10-19T13:02:35.135Z,12.49
2022-10-19T13:05:41.654Z,12.47
2022-10-19T13:08:57.329Z,12.46
2022-10-19T13:12:43.203Z,12.44
2022-10-19T13:15:56.107Z,12.42
2022-10-19T13:19:22.442Z,12.39
2022-10-19T13:22:29.978Z,12.37
2022-10-19T13:25:36.255Z,12.33
2022-10-19T13:28:53.229Z,12.29
2022-10-19T13:32:44.648Z,12.27
2022-10-19T13:35:50.408Z,12.23
2022-10-19T13:39:16.537Z,12.17
2022-10-19T13:42:29.560Z,12.10
2022-10-19T13:45:35.745Z,12.05
2022-10-19T13:48:45.719Z,11.99
2022-10-19T13:52:06.380Z,11.94
2022-10-19T13:55:29.400Z,11.92
2022-10-19T13:59:09.649Z,11.89
2022-10-19T14:02:42.233Z,11.88
2022-10-19T14:06:14.317Z,11.89
2022-10-19T14:09:48.375Z,11.90
2022-10-19T14:12:54.505Z,11.90
2022-10-19T14:16:00.517Z,11.89
2022-10-19T14:19:15.394Z,11.86
2022-10-19T14:22:30.020Z,11.84
2022-10-19T14:25:35.680Z,11.80
2022-10-19T14:28:43.065Z,11.77
2022-10-19T14:31:48.827Z,11.74
2022-10-19T14:34:55.955Z,11.71
2022-10-19T14:38:02.019Z,11.69
2022-10-19T14:41:19.962Z,11.66
2022-10-19T14:44:37.547Z,11.64
2022-10-19T14:47:54.063Z,11.62
2022-10-19T14:51:00.658Z,11.61
2022-10-19T14:54:09.339Z,11.57
2022-10-19T14:57:20.122Z,11.53
2022-10-19T15:03:40.219Z,11.47
2022-10-19T15:06:49.514Z,11.47
2022-10-19T15:09:58.837Z,11.46
2022-10-19T15:13:07.567Z,11.43
2022-10-19T15:16:31.632Z,11.43
2022-10-19T15:19:42.597Z,11.43
2022-10-19T15:22:48.113Z,11.43
2022-10-19T15:26:02.009Z,11.41
2022-10-19T15:29:20.437Z,11.40
2022-10-19T15:32:31.895Z,11.38
2022-10-19T15:35:39.728Z,11.35
2022-10-19T15:38:46.142Z,11.31
2022-10-19T15:41:51.749Z,11.29
2022-10-19T15:44:58.013Z,11.26
2022-10-19T15:48:28.380Z,11.24
2022-10-19T15:51:47.820Z,11.21
2022-10-19T15:54:54.497Z,11.21
2022-10-19T15:58:02.344Z,11.20
2022-10-19T16:01:16.878Z,11.19
2022-10-19T16:04:22.372Z,11.19
2022-10-19T16:07:31.482Z,11.20
2022-10-19T16:10:37.091Z,11.19
2022-10-19T16:13:43.049Z,11.14
2022-10-19T16:16:50.339Z,11.12
2022-10-19T16:19:55.787Z,11.11
2022-10-19T16:23:01.438Z,11.09
2022-10-19T16:26:07.412Z,11.06
2022-10-19T16:29:12.859Z,11.03
2022-10-19T16:32:18.394Z,10.99
2022-10-19T16:35:24.079Z,10.98
2022-10-19T16:38:31.542Z,10.99
2022-10-19T16:44:47.555Z,10.98
2022-10-19T16:47:53.869Z,10.97
2022-10-19T16:51:35.449Z,10.96
2022-10-19T16:54:40.966Z,10.94
2022-10-19T16:57:46.517Z,10.93
2022-10-19T17:00:52.298Z,10.91
2022-10-19T17:03:58.576Z,10.88
2022-10-19T17:07:04.085Z,10.87
2022-10-19T17:10:10.948Z,10.86
2022-10-19T17:13:16.442Z,10.85
2022-10-19T17:16:23.440Z,10.82
2022-10-19T17:19:29.053Z,10.80
2022-10-19T17:22:35.010Z,10.79
2022-10-19T17:25:47.213Z,10.78
2022-10-19T17:28:52.610Z,10.79
2022-10-19T17:31:58.568Z,10.80
2022-10-19T17:35:04.058Z,10.79
2022-10-19T17:38:09.478Z,10.74
2022-10-19T17:41:17.263Z,10.67
2022-10-19T17:44:23.979Z,10.61
2022-10-19T17:47:30.666Z,10.60
2022-10-19T17:50:36.318Z,10.59
2022-10-19T17:53:41.794Z,10.52
2022-10-19T17:56:47.317Z,10.47
2022-10-19T17:59:54.299Z,10.44
2022-10-19T18:02:59.817Z,10.41
2022-10-19T18:06:09.886Z,10.41
2022-10-19T18:09:16.476Z,10.41
2022-10-19T18:12:22.025Z,10.41
2022-10-19T18:15:27.576Z,10.41
2022-10-19T18:18:35.505Z,10.41
2022-10-19T18:21:43.041Z,10.42
2022-10-19T18:24:49.596Z,10.42
2022-10-19T18:27:55.097Z,10.42
2022-10-19T18:31:07.427Z,10.41
2022-10-19T18:34:16.365Z,10.37
2022-10-19T18:37:21.812Z,10.29
2022-10-19T18:40:27.843Z,10.21
2022-10-19T18:43:33.700Z,10.19
2022-10-19T18:46:40.124Z,10.18
2022-10-19T18:49:45.618Z,10.15
2022-10-19T18:52:51.066Z,10.14
2022-10-19T18:56:04.109Z,10.13
2022-10-19T18:59:09.882Z,10.12
2022-10-19T19:02:28.219Z,10.13
2022-10-19T19:05:40.090Z,10.15
2022-10-19T19:08:45.949Z,10.13
2022-10-19T19:11:54.200Z,10.08
2022-10-19T19:14:59.626Z,10.06
2022-10-19T19:18:05.609Z,10.07
2022-10-19T19:21:16.803Z,10.07
2022-10-19T19:24:28.067Z,10.07
2022-10-19T19:27:33.724Z,10.04
2022-10-19T19:30:44.557Z,10.00
2022-10-19T19:33:50.310Z,10.00
2022-10-19T19:36:55.859Z,10.00
2022-10-19T19:40:01.424Z,9.98
2022-10-19T19:43:06.862Z,9.95
2022-10-19T19:46:15.482Z,9.91
2022-10-19T19:49:21.128Z,9.89
2022-10-19T19:52:26.582Z,9.85
2022-10-19T19:55:38.157Z,9.81
2022-10-19T19:58:46.276Z,9.76
2022-10-19T20:01:51.989Z,9.71
2022-10-19T20:04:57.536Z,9.66
2022-10-19T20:08:03.027Z,9.63
2022-10-19T20:11:11.034Z,9.60
2022-10-19T20:14:16.583Z,9.54
2022-10-19T20:17:23.977Z,9.48
2022-10-19T20:20:29.465Z,9.44
2022-10-19T20:23:35.100Z,9.39
2022-10-19T20:26:41.034Z,9.35
2022-10-19T20:29:46.583Z,9.31
2022-10-19T20:32:55.980Z,9.28
2022-10-19T20:36:06.480Z,9.24
2022-10-19T20:39:12.461Z,9.23
2022-10-19T20:42:19.269Z,9.23
2022-10-19T20:45:24.778Z,9.24
2022-10-19T20:48:30.325Z,9.22
2022-10-19T20:51:37.956Z,9.22
2022-10-19T20:54:43.574Z,9.22
2022-10-19T20:57:49.107Z,9.22
2022-10-19T21:00:54.533Z,9.21
2022-10-19T21:04:03.313Z,9.20
2022-10-19T21:07:09.097Z,9.20
2022-10-19T21:10:14.560Z,9.23
2022-10-19T21:13:20.046Z,9.27
2022-10-19T21:16:28.393Z,9.28
2022-10-19T21:19:34.463Z,9.18
2022-10-19T21:22:41.620Z,9.08
2022-10-19T21:25:56.164Z,9.03
2022-10-19T21:29:01.720Z,9.02
2022-10-19T21:32:07.780Z,9.00
2022-10-19T21:35:13.434Z,9.01
2022-10-19T21:38:18.865Z,9.00
2022-10-19T21:41:26.391Z,8.98
2022-10-19T21:44:32.157Z,9.00
2022-10-19T21:47:38.033Z,9.04
2022-10-19T21:50:43.787Z,9.08
2022-10-19T21:53:49.231Z,9.10
2022-10-19T21:56:56.690Z,9.11
2022-10-19T22:00:02.255Z,9.11
2022-10-19T22:03:07.728Z,9.06
2022-10-19T22:06:14.473Z,9.03
2022-10-19T22:09:21.814Z,9.02
2022-10-19T22:12:27.317Z,8.98
2022-10-19T22:15:32.847Z,8.96
2022-10-19T22:18:38.497Z,8.93
2022-10-19T22:21:44.355Z,8.88
2022-10-19T22:24:49.903Z,8.84
2022-10-19T22:27:55.361Z,8.82
2022-10-19T22:31:01.718Z,8.81
2022-10-19T22:34:09.835Z,8.77
2022-10-19T22:37:15.260Z,8.72
2022-10-19T22:40:20.927Z,8.66
2022-10-19T22:44:20.135Z,8.60
2022-10-19T22:47:26.401Z,8.51
2022-10-19T22:50:30.709Z,8.42
2022-10-19T22:53:36.610Z,8.37
2022-10-19T22:56:42.669Z,8.31
2022-10-19T22:59:48.740Z,8.29
2022-10-19T23:02:54.778Z,8.29
2022-10-19T23:06:00.992Z,8.25
2022-10-19T23:09:05.636Z,8.19
2022-10-19T23:12:11.717Z,8.15
2022-10-19T23:15:17.844Z,8.12
2022-10-19T23:18:23.923Z,8.10
2022-10-19T23:21:29.965Z,8.09
2022-10-19T23:24:35.882Z,8.04
2022-10-19T23:27:41.922Z,8.02
2022-10-19T23:30:48.030Z,8.05
2022-10-19T23:33:54.661Z,8.11
2022-10-19T23:37:00.550Z,8.13
2022-10-19T23:40:07.681Z,8.15
2022-10-19T23:43:13.356Z,8.17
2022-10-19T23:46:19.341Z,8.18
2022-10-19T23:49:25.068Z,8.19
2022-10-19T23:52:30.720Z,8.19
2022-10-19T23:55:36.475Z,8.19
2022-10-19T23:58:42.433Z,8.18
